createdAt,value
2023-05-04T00:01:43.936Z,3.35
2023-05-04T00:04:04.322Z,3.45
2023-05-04T00:06:24.998Z,3.72
2023-05-04T00:08:45.384Z,3.63
2023-05-04T00:11:05.572Z,4.03
2023-05-04T00:13:26.056Z,3.58
2023-05-04T00:15:46.607Z,2.88
2023-05-04T00:18:06.784Z,3.28
2023-05-04T00:20:26.963Z,3.40
2023-05-04T00:22:47.059Z,3.47
2023-05-04T00:25:07.499Z,3.05
2023-05-04T00:27:27.741Z,3.17
2023-05-04T00:29:47.811Z,3.55
2023-05-04T00:32:09.696Z,2.92
2023-05-04T00:34:33.443Z,2.75
2023-05-04T00:36:53.635Z,2.63
2023-05-04T00:39:13.967Z,2.47
2023-05-04T00:41:33.997Z,3.05
2023-05-04T00:43:54.069Z,2.75
2023-05-04T00:46:14.538Z,2.45
2023-05-04T00:48:34.992Z,3.00
2023-05-04T00:50:55.299Z,2.35
2023-05-04T00:53:15.717Z,3.20
2023-05-04T00:55:42.268Z,3.78
2023-05-04T00:58:02.582Z,4.47
2023-05-04T01:00:22.798Z,4.15
2023-05-04T01:02:43.177Z,3.30
2023-05-04T01:05:03.700Z,4.50
2023-05-04T01:07:34.859Z,4.00
2023-05-04T01:10:15.501Z,4.20
2023-05-04T01:12:47.952Z,4.15
2023-05-04T01:15:12.495Z,4.40
2023-05-04T01:17:32.638Z,4.15
2023-05-04T01:19:53.369Z,4.03
2023-05-04T01:22:13.409Z,3.00
2023-05-04T01:24:33.685Z,3.30
2023-05-04T01:26:56.727Z,3.80
2023-05-04T01:29:18.582Z,3.05
2023-05-04T01:31:39.759Z,3.80
2023-05-04T01:34:00.634Z,3.13
2023-05-04T01:36:21.436Z,3.88
2023-05-04T01:38:42.323Z,4.75
2023-05-04T01:41:02.224Z,3.65
2023-05-04T01:43:22.953Z,3.47
2023-05-04T01:45:43.355Z,3.13
2023-05-04T01:48:03.552Z,2.75
2023-05-04T01:50:23.663Z,3.75
2023-05-04T01:52:43.651Z,2.90
2023-05-04T01:55:03.825Z,3.08
2023-05-04T01:57:24.065Z,4.10
2023-05-04T01:59:44.108Z,3.42
2023-05-04T02:02:04.224Z,2.83
2023-05-04T02:04:24.587Z,3.10
2023-05-04T02:06:44.572Z,3.20
2023-05-04T02:09:05.031Z,3.17
2023-05-04T02:11:25.574Z,3.13
2023-05-04T02:13:45.990Z,3.42
2023-05-04T02:16:06.299Z,3.05
2023-05-04T02:18:26.950Z,2.58
2023-05-04T02:20:46.976Z,3.15
2023-05-04T02:23:07.037Z,3.17
2023-05-04T02:25:27.312Z,3.42
2023-05-04T02:27:47.538Z,3.70
2023-05-04T02:30:08.112Z,3.25
2023-05-04T02:32:28.403Z,3.10
2023-05-04T02:34:48.652Z,2.95
2023-05-04T02:37:08.860Z,3.25
2023-05-04T02:39:29.082Z,2.97
2023-05-04T02:41:49.352Z,2.95
2023-05-04T02:44:09.482Z,3.08
2023-05-04T02:46:30.521Z,3.97
2023-05-04T02:48:51.077Z,3.85
2023-05-04T02:51:11.294Z,3.67
2023-05-04T02:53:31.340Z,4.60
2023-05-04T02:55:51.690Z,4.00
2023-05-04T02:58:11.899Z,3.40
2023-05-04T03:00:32.259Z,4.03
2023-05-04T03:02:52.559Z,3.55
2023-05-04T03:05:12.602Z,4.35
2023-05-04T03:07:32.757Z,3.78
2023-05-04T03:09:52.814Z,3.33
2023-05-04T03:12:13.050Z,3.25
2023-05-04T03:14:32.969Z,4.13
2023-05-04T03:16:53.149Z,3.53
2023-05-04T03:19:13.190Z,4.50
2023-05-04T03:21:33.057Z,4.57
2023-05-04T03:23:53.277Z,4.35
2023-05-04T03:26:13.515Z,4.53
2023-05-04T03:28:33.783Z,3.80
2023-05-04T03:30:54.371Z,4.00
2023-05-04T03:33:14.477Z,3.85
2023-05-04T03:35:34.705Z,3.80
2023-05-04T03:37:55.310Z,4.68
2023-05-04T03:40:15.535Z,4.43
2023-05-04T03:42:37.392Z,4.32
2023-05-04T03:44:57.498Z,3.77
2023-05-04T03:47:17.685Z,3.58
2023-05-04T03:49:37.731Z,4.60
2023-05-04T03:51:57.922Z,4.55
2023-05-04T03:54:18.114Z,4.35
2023-05-04T03:56:38.237Z,5.18
2023-05-04T03:58:58.555Z,4.70
2023-05-04T04:01:18.681Z,3.53
2023-05-04T04:03:40.201Z,4.10
2023-05-04T04:06:01.198Z,4.28
2023-05-04T04:08:21.588Z,4.97
2023-05-04T04:10:42.226Z,4.13
2023-05-04T04:13:02.659Z,3.88
2023-05-04T04:15:24.577Z,4.85
2023-05-04T04:17:44.885Z,3.90
2023-05-04T04:20:05.615Z,4.28
2023-05-04T04:22:26.537Z,3.80
2023-05-04T04:24:46.989Z,4.60
2023-05-04T04:27:06.967Z,4.40
2023-05-04T04:29:27.196Z,4.10
2023-05-04T04:31:47.241Z,3.80
2023-05-04T04:34:07.445Z,4.72
2023-05-04T04:36:27.701Z,5.45
2023-05-04T04:38:47.709Z,3.72
2023-05-04T04:41:07.789Z,4.65
2023-05-04T04:43:28.005Z,4.13
2023-05-04T04:45:48.590Z,4.60
2023-05-04T04:48:08.571Z,4.30
2023-05-04T04:50:28.943Z,4.85
2023-05-04T04:52:49.081Z,5.03
2023-05-04T04:55:09.615Z,4.63
2023-05-04T04:57:31.730Z,4.10
2023-05-04T04:59:55.233Z,5.15
2023-05-04T05:02:15.196Z,5.32
2023-05-04T05:04:37.110Z,5.38
2023-05-04T05:06:58.173Z,4.40
2023-05-04T05:09:18.119Z,4.45
2023-05-04T05:11:38.280Z,4.65
2023-05-04T05:13:59.241Z,4.53
2023-05-04T05:16:19.323Z,4.82
2023-05-04T05:18:39.292Z,4.80
2023-05-04T05:21:00.114Z,5.22
2023-05-04T05:23:20.336Z,5.05
2023-05-04T05:25:40.822Z,6.18
2023-05-04T05:28:01.554Z,5.03
2023-05-04T05:30:21.819Z,4.60
2023-05-04T05:32:42.254Z,5.22
2023-05-04T05:35:03.919Z,4.75
2023-05-04T05:37:24.134Z,5.32
2023-05-04T05:39:44.420Z,4.65
2023-05-04T05:42:05.318Z,5.72
2023-05-04T05:44:25.515Z,5.50
2023-05-04T05:46:45.812Z,4.35
2023-05-04T05:49:06.718Z,4.30
2023-05-04T05:51:27.285Z,4.00
2023-05-04T05:53:47.573Z,3.20
2023-05-04T05:56:07.809Z,5.20
2023-05-04T05:58:27.978Z,5.47
2023-05-04T06:00:47.962Z,4.15
2023-05-04T06:03:08.357Z,5.07
2023-05-04T06:05:28.454Z,4.60
2023-05-04T06:07:48.643Z,4.57
2023-05-04T06:10:08.963Z,4.93
2023-05-04T06:12:29.248Z,5.53
2023-05-04T06:14:49.568Z,4.18
2023-05-04T06:17:10.079Z,4.97
2023-05-04T06:19:31.622Z,3.97
2023-05-04T06:21:52.262Z,4.38
2023-05-04T06:24:12.793Z,6.50
2023-05-04T06:26:33.057Z,5.53
2023-05-04T06:28:53.338Z,4.88
2023-05-04T06:31:13.637Z,4.20
2023-05-04T06:33:33.900Z,4.78
2023-05-04T06:35:54.213Z,4.97
2023-05-04T06:38:14.332Z,5.53
2023-05-04T06:40:34.707Z,4.50
2023-05-04T06:42:55.376Z,3.60
2023-05-04T06:45:15.766Z,4.28
2023-05-04T06:47:36.964Z,3.08
2023-05-04T06:49:57.673Z,4.00
2023-05-04T06:52:17.709Z,3.30
2023-05-04T06:54:39.442Z,3.08
2023-05-04T06:56:59.833Z,3.00
2023-05-04T06:59:20.100Z,3.00
2023-05-04T07:01:40.838Z,2.83
2023-05-04T07:04:01.306Z,1.83
2023-05-04T07:06:21.406Z,2.60
2023-05-04T07:08:41.684Z,2.97
2023-05-04T07:11:02.020Z,2.75
2023-05-04T07:13:22.080Z,2.28
2023-05-04T07:15:42.181Z,2.55
2023-05-04T07:18:02.572Z,2.10
2023-05-04T07:20:25.628Z,1.45
2023-05-04T07:22:46.603Z,1.65
2023-05-04T07:25:07.081Z,1.55
2023-05-04T07:27:27.652Z,1.40
2023-05-04T07:29:47.719Z,1.30
2023-05-04T07:32:07.751Z,1.58
2023-05-04T07:34:41.922Z,1.20
2023-05-04T07:37:05.682Z,1.10
2023-05-04T07:39:26.172Z,1.48
2023-05-04T07:41:48.095Z,1.25
2023-05-04T07:44:10.642Z,1.30
2023-05-04T07:46:30.822Z,1.20
2023-05-04T07:48:51.434Z,1.10
2023-05-04T07:51:15.618Z,1.20
2023-05-04T07:53:35.667Z,1.13
2023-05-04T07:56:00.242Z,1.20
2023-05-04T07:58:20.371Z,1.10
2023-05-04T08:00:41.261Z,1.20
2023-05-04T08:03:01.648Z,1.10
2023-05-04T08:05:21.673Z,1.23
2023-05-04T08:07:41.881Z,1.10
2023-05-04T08:10:02.141Z,1.10
2023-05-04T08:12:23.637Z,1.20
2023-05-04T08:14:46.634Z,1.67
2023-05-04T08:17:07.046Z,1.10
2023-05-04T08:19:26.983Z,1.00
2023-05-04T08:21:47.016Z,1.10
2023-05-04T08:24:07.175Z,1.00
2023-05-04T08:26:27.446Z,1.00
2023-05-04T08:28:48.279Z,1.25
2023-05-04T08:31:08.587Z,1.27
2023-05-04T08:33:28.730Z,1.10
2023-05-04T08:35:49.303Z,1.08
2023-05-04T08:38:09.643Z,1.10
2023-05-04T08:40:30.113Z,0.93
2023-05-04T08:42:51.858Z,1.00
2023-05-04T08:45:12.004Z,1.05
2023-05-04T08:47:32.252Z,1.10
2023-05-04T08:49:56.281Z,1.10
2023-05-04T08:52:17.542Z,1.00
2023-05-04T08:54:39.015Z,1.00
2023-05-04T08:56:59.633Z,0.95
2023-05-04T08:59:21.150Z,1.10
2023-05-04T09:01:41.832Z,1.00
2023-05-04T09:04:02.921Z,1.00
2023-05-04T09:06:23.204Z,1.00
2023-05-04T09:08:43.881Z,0.90
2023-05-04T09:11:04.950Z,1.00
2023-05-04T09:13:25.449Z,0.90
2023-05-04T09:15:55.420Z,0.90
2023-05-04T09:18:15.592Z,0.90
2023-05-04T09:20:48.976Z,0.90
2023-05-04T09:23:09.461Z,1.10
2023-05-04T09:25:30.475Z,0.93
2023-05-04T09:27:54.049Z,0.98
2023-05-04T09:30:14.402Z,0.90
2023-05-04T09:32:46.756Z,0.90
2023-05-04T09:35:08.570Z,0.98
2023-05-04T09:37:29.620Z,0.98
2023-05-04T09:39:59.020Z,0.90
2023-05-04T09:42:20.144Z,0.80
2023-05-04T09:44:40.376Z,0.90
2023-05-04T09:47:00.672Z,0.90
2023-05-04T09:49:31.985Z,0.90
2023-05-04T09:51:52.160Z,0.90
2023-05-04T09:54:12.643Z,0.90
2023-05-04T09:56:38.255Z,0.90
2023-05-04T09:58:59.256Z,0.90
2023-05-04T10:01:20.118Z,0.90
2023-05-04T10:03:41.720Z,1.00
2023-05-04T10:06:05.751Z,0.80
2023-05-04T10:08:28.369Z,0.80
2023-05-04T10:10:48.650Z,1.00
2023-05-04T10:13:09.015Z,0.88
2023-05-04T10:15:30.093Z,0.80
2023-05-04T10:17:50.609Z,1.23
2023-05-04T10:20:46.773Z,0.90
2023-05-04T10:23:16.104Z,0.90
2023-05-04T10:25:36.105Z,0.82
2023-05-04T10:28:15.971Z,0.80
2023-05-04T10:30:39.221Z,0.90
2023-05-04T10:33:01.460Z,0.90
2023-05-04T10:37:50.309Z,0.90
2023-05-04T10:40:10.629Z,0.90
2023-05-04T10:42:41.255Z,0.90
2023-05-04T10:45:01.295Z,0.80
2023-05-04T10:47:31.930Z,0.80
2023-05-04T10:50:00.521Z,0.90
2023-05-04T10:52:21.134Z,0.80
2023-05-04T10:54:41.881Z,0.80
2023-05-04T10:57:09.573Z,0.80
2023-05-04T10:59:30.274Z,0.80
2023-05-04T11:01:50.566Z,0.80
2023-05-04T11:04:21.568Z,0.80
2023-05-04T11:06:41.598Z,0.77
2023-05-04T11:09:02.528Z,0.80
2023-05-04T11:11:23.613Z,1.00
2023-05-04T11:13:46.589Z,0.80
2023-05-04T11:16:07.051Z,0.80
2023-05-04T11:18:31.710Z,0.80
2023-05-04T11:20:52.251Z,0.80
2023-05-04T11:23:16.148Z,0.80
2023-05-04T11:25:36.968Z,0.90
2023-05-04T11:27:58.041Z,0.80
2023-05-04T11:30:18.196Z,0.70
2023-05-04T11:32:42.110Z,0.75
2023-05-04T11:35:03.546Z,0.70
2023-05-04T11:37:23.926Z,0.70
2023-05-04T11:39:44.189Z,0.70
2023-05-04T11:42:10.849Z,0.60
2023-05-04T11:44:31.311Z,0.70
2023-05-04T11:46:51.830Z,0.70
2023-05-04T11:49:12.474Z,0.80
2023-05-04T11:51:32.572Z,0.70
2023-05-04T11:53:53.798Z,0.70
2023-05-04T11:56:14.002Z,0.70
2023-05-04T11:58:34.019Z,0.70
2023-05-04T12:00:57.958Z,0.70
2023-05-04T12:03:32.684Z,0.70
2023-05-04T12:05:57.011Z,0.70
2023-05-04T12:08:41.283Z,0.70
2023-05-04T12:11:10.637Z,0.80
2023-05-04T12:13:30.674Z,0.70
2023-05-04T12:15:50.811Z,0.80
2023-05-04T12:18:28.679Z,0.70
2023-05-04T12:20:48.972Z,0.70
2023-05-04T12:23:09.026Z,0.70
2023-05-04T12:25:29.248Z,0.80
2023-05-04T12:27:49.520Z,0.70
2023-05-04T12:30:10.376Z,0.80
2023-05-04T12:32:30.611Z,0.80
2023-05-04T12:34:50.628Z,0.70
2023-05-04T12:37:11.066Z,0.80
2023-05-04T12:39:32.508Z,0.73
2023-05-04T12:41:52.818Z,0.73
2023-05-04T12:44:13.675Z,0.80
2023-05-04T12:46:34.112Z,0.70
2023-05-04T12:48:54.285Z,0.70
2023-05-04T12:51:14.305Z,0.77
2023-05-04T12:53:34.760Z,0.70
2023-05-04T12:55:55.146Z,0.70
2023-05-04T12:58:15.219Z,0.70
2023-05-04T13:00:36.299Z,0.60
2023-05-04T13:02:56.306Z,0.70
2023-05-04T13:05:17.694Z,0.70
2023-05-04T13:07:37.915Z,0.82
2023-05-04T13:09:58.535Z,0.70
2023-05-04T13:12:18.654Z,0.80
2023-05-04T13:14:40.091Z,0.70
2023-05-04T13:17:00.673Z,0.60
2023-05-04T13:19:20.993Z,0.60
2023-05-04T13:21:41.035Z,0.70
2023-05-04T13:24:01.382Z,1.00
2023-05-04T13:26:21.512Z,0.70
2023-05-04T13:28:41.490Z,0.77
2023-05-04T13:31:01.576Z,0.70
2023-05-04T13:33:29.340Z,0.60
2023-05-04T13:35:50.747Z,0.70
2023-05-04T13:38:11.089Z,0.60
2023-05-04T13:40:31.524Z,0.70
2023-05-04T13:42:51.805Z,0.70
2023-05-04T13:45:12.432Z,0.60
2023-05-04T13:47:36.260Z,0.70
2023-05-04T13:49:56.448Z,0.70
2023-05-04T13:52:16.445Z,0.70
2023-05-04T13:54:36.719Z,0.70
2023-05-04T13:56:57.064Z,0.70
2023-05-04T13:59:17.089Z,0.60
2023-05-04T14:01:37.251Z,0.70
2023-05-04T14:03:57.306Z,0.70
2023-05-04T14:06:17.237Z,0.70
2023-05-04T14:08:37.633Z,0.60
2023-05-04T14:10:58.023Z,0.60
2023-05-04T14:13:18.163Z,0.60
2023-05-04T14:15:38.266Z,0.60
2023-05-04T14:17:58.497Z,0.65
2023-05-04T14:20:18.626Z,0.60
2023-05-04T14:22:40.613Z,0.60
2023-05-04T14:25:01.012Z,0.60
2023-05-04T14:27:21.949Z,0.70
2023-05-04T14:29:42.290Z,0.70
2023-05-04T14:32:02.496Z,0.70
2023-05-04T14:34:22.872Z,0.70
2023-05-04T14:36:43.166Z,0.60
2023-05-04T14:39:03.406Z,0.70
2023-05-04T14:41:23.594Z,0.70
2023-05-04T14:43:43.800Z,0.70
2023-05-04T14:46:04.150Z,0.60
2023-05-04T14:48:25.766Z,0.68
2023-05-04T14:50:46.107Z,0.60
2023-05-04T14:53:06.230Z,0.70
2023-05-04T14:55:26.356Z,0.70
2023-05-04T14:57:46.497Z,0.70
2023-05-04T15:00:07.605Z,0.70
2023-05-04T15:02:28.256Z,0.68
2023-05-04T15:04:48.821Z,0.63
2023-05-04T15:07:09.073Z,0.70
2023-05-04T15:09:29.320Z,0.70
2023-05-04T15:11:49.407Z,0.60
2023-05-04T15:14:09.645Z,0.90
2023-05-04T15:16:32.296Z,0.70
2023-05-04T15:21:13.115Z,0.70
2023-05-04T15:23:33.145Z,0.70
2023-05-04T15:25:53.297Z,0.70
2023-05-04T15:28:13.457Z,0.70
2023-05-04T15:30:33.512Z,0.70
2023-05-04T15:32:53.729Z,0.70
2023-05-04T15:35:13.714Z,0.70
2023-05-04T15:37:34.454Z,0.65
2023-05-04T15:39:55.027Z,0.80
2023-05-04T15:42:15.230Z,0.80
2023-05-04T15:44:35.676Z,0.70
2023-05-04T15:46:56.109Z,0.80
2023-05-04T15:49:16.431Z,0.70
2023-05-04T15:51:36.644Z,0.90
2023-05-04T15:53:56.917Z,0.80
2023-05-04T15:56:17.325Z,0.75
2023-05-04T15:58:37.993Z,0.77
2023-05-04T16:00:59.223Z,0.70
2023-05-04T16:03:20.031Z,0.80
2023-05-04T16:05:40.563Z,0.80
2023-05-04T16:08:01.114Z,0.70
2023-05-04T16:10:21.661Z,0.80
2023-05-04T16:12:42.303Z,0.80
2023-05-04T16:15:02.623Z,0.95
2023-05-04T16:17:22.893Z,0.80
2023-05-04T16:19:43.048Z,0.90
2023-05-04T16:22:03.190Z,0.80
2023-05-04T16:24:23.589Z,0.90
2023-05-04T16:26:44.234Z,0.82
2023-05-04T16:29:04.210Z,0.90
2023-05-04T16:31:24.579Z,0.90
2023-05-04T16:33:47.773Z,0.80
2023-05-04T16:36:08.387Z,0.90
2023-05-04T16:38:28.797Z,1.23
2023-05-04T16:40:48.934Z,0.90
2023-05-04T16:43:09.756Z,0.90
2023-05-04T16:45:31.240Z,1.00
2023-05-04T16:47:52.271Z,1.13
2023-05-04T16:50:12.900Z,1.10
2023-05-04T16:52:33.053Z,0.98
2023-05-04T16:54:53.272Z,1.00
2023-05-04T16:57:13.535Z,0.98
2023-05-04T16:59:33.757Z,1.10
2023-05-04T17:01:54.086Z,1.10
2023-05-04T17:04:14.453Z,1.10
2023-05-04T17:06:35.233Z,0.90
2023-05-04T17:08:55.439Z,1.35
2023-05-04T17:11:15.580Z,1.00
2023-05-04T17:13:35.743Z,1.00
2023-05-04T17:15:55.876Z,1.00
2023-05-04T17:18:16.102Z,0.90
2023-05-04T17:20:36.142Z,0.93
2023-05-04T17:22:57.946Z,0.90
2023-05-04T17:25:18.372Z,0.90
2023-05-04T17:27:38.584Z,1.00
2023-05-04T17:29:58.695Z,1.00
2023-05-04T17:32:18.983Z,1.00
2023-05-04T17:34:39.178Z,1.00
2023-05-04T17:36:59.067Z,1.20
2023-05-04T17:39:19.196Z,1.00
2023-05-04T17:41:39.252Z,1.00
2023-05-04T17:43:59.200Z,1.38
2023-05-04T17:46:19.869Z,1.27
2023-05-04T17:48:40.203Z,1.05
2023-05-04T17:51:00.331Z,1.13
2023-05-04T17:53:20.514Z,1.00
2023-05-04T17:55:40.568Z,1.00
2023-05-04T17:58:00.931Z,1.10
2023-05-04T18:00:21.669Z,1.00
2023-05-04T18:02:41.869Z,1.00
2023-05-04T18:05:02.385Z,1.10
2023-05-04T18:07:22.862Z,1.13
2023-05-04T18:09:43.164Z,1.10
2023-05-04T18:12:03.334Z,1.08
2023-05-04T18:14:23.160Z,1.00
2023-05-04T18:16:43.373Z,1.02
2023-05-04T18:19:05.429Z,1.00
2023-05-04T18:21:27.057Z,1.60
2023-05-04T18:23:47.206Z,1.10
2023-05-04T18:26:07.452Z,1.33
2023-05-04T18:28:27.334Z,1.10
2023-05-04T18:30:47.557Z,1.35
2023-05-04T18:33:08.037Z,1.42
2023-05-04T18:35:28.378Z,1.10
2023-05-04T18:37:48.943Z,1.10
2023-05-04T18:40:10.110Z,1.10
2023-05-04T18:42:30.628Z,1.30
2023-05-04T18:44:51.254Z,1.20
2023-05-04T18:47:11.238Z,1.20
2023-05-04T18:49:31.410Z,1.27
2023-05-04T18:51:51.500Z,1.38
2023-05-04T18:54:14.192Z,1.50
2023-05-04T18:56:34.518Z,1.42
2023-05-04T18:58:54.662Z,1.50
2023-05-04T19:01:15.146Z,1.52
2023-05-04T19:03:36.130Z,1.45
2023-05-04T19:05:56.466Z,1.63
2023-05-04T19:08:16.823Z,1.50
2023-05-04T19:10:36.995Z,3.20
2023-05-04T19:12:57.302Z,2.00
2023-05-04T19:15:18.106Z,1.40
2023-05-04T19:17:38.497Z,1.58
2023-05-04T19:19:58.779Z,1.90
2023-05-04T19:22:18.924Z,1.50
2023-05-04T19:24:39.239Z,2.05
2023-05-04T19:26:59.876Z,1.63
2023-05-04T19:29:20.507Z,1.80
2023-05-04T19:31:40.922Z,2.22
2023-05-04T19:34:01.591Z,2.33
2023-05-04T19:36:22.290Z,4.43
2023-05-04T19:38:42.609Z,4.65
2023-05-04T19:41:03.701Z,3.53
2023-05-04T19:43:24.013Z,5.90
2023-05-04T19:45:44.676Z,3.83
2023-05-04T19:48:05.073Z,2.35
2023-05-04T19:50:25.209Z,2.35
2023-05-04T19:52:45.494Z,2.25
2023-05-04T19:55:06.327Z,2.63
2023-05-04T19:57:27.734Z,2.25
2023-05-04T19:59:48.441Z,1.60
2023-05-04T20:02:08.750Z,1.90
2023-05-04T20:04:29.262Z,2.40
2023-05-04T20:06:49.704Z,1.98
2023-05-04T20:09:10.126Z,2.63
2023-05-04T20:11:30.886Z,2.38
2023-05-04T20:13:52.410Z,3.67
2023-05-04T20:16:15.269Z,1.98
2023-05-04T20:18:35.728Z,2.35
2023-05-04T20:20:56.593Z,2.42
2023-05-04T20:23:17.306Z,2.85
2023-05-04T20:25:37.813Z,2.25
2023-05-04T20:27:57.968Z,1.55
2023-05-04T20:30:18.173Z,2.50
2023-05-04T20:32:38.627Z,2.33
2023-05-04T20:34:59.069Z,2.63
2023-05-04T20:37:19.608Z,3.42
2023-05-04T20:39:39.715Z,3.15
2023-05-04T20:42:00.257Z,2.10
2023-05-04T20:44:20.452Z,2.20
2023-05-04T20:46:40.606Z,2.97
2023-05-04T20:49:02.170Z,3.70
2023-05-04T20:51:22.460Z,3.47
2023-05-04T20:53:42.734Z,3.15
2023-05-04T20:56:03.275Z,2.80
2023-05-04T20:58:23.607Z,3.95
2023-05-04T21:00:43.878Z,2.90
2023-05-04T21:03:04.460Z,3.80
2023-05-04T21:05:25.119Z,3.40
2023-05-04T21:07:45.144Z,3.88
2023-05-04T21:10:05.410Z,3.33
2023-05-04T21:12:25.980Z,3.85
2023-05-04T21:14:46.177Z,3.50
2023-05-04T21:17:06.668Z,3.20
2023-05-04T21:19:26.965Z,3.30
2023-05-04T21:21:47.578Z,2.85
2023-05-04T21:24:12.551Z,3.38
2023-05-04T21:26:32.548Z,3.00
2023-05-04T21:28:52.689Z,3.08
2023-05-04T21:31:12.887Z,2.92
2023-05-04T21:33:33.252Z,3.08
2023-05-04T21:35:53.729Z,3.33
2023-05-04T21:38:14.125Z,3.30
2023-05-04T21:40:34.594Z,3.17
2023-05-04T21:42:54.829Z,3.03
2023-05-04T21:45:14.846Z,3.30
2023-05-04T21:47:35.659Z,3.38
2023-05-04T21:49:55.973Z,4.13
2023-05-04T21:52:16.162Z,3.72
2023-05-04T21:54:36.610Z,3.65
2023-05-04T21:56:56.900Z,2.97
2023-05-04T21:59:17.331Z,3.60
2023-05-04T22:01:37.757Z,2.97
2023-05-04T22:03:57.896Z,3.33
2023-05-04T22:06:18.172Z,3.38
2023-05-04T22:08:38.410Z,3.90
2023-05-04T22:10:58.739Z,3.60
2023-05-04T22:13:19.145Z,3.40
2023-05-04T22:15:49.506Z,3.70
2023-05-04T22:18:11.041Z,2.78
2023-05-04T22:20:32.839Z,4.13
2023-05-04T22:22:52.970Z,3.67
2023-05-04T22:25:13.270Z,3.50
2023-05-04T22:27:33.246Z,4.10
2023-05-04T22:29:53.336Z,4.20
2023-05-04T22:32:13.555Z,3.05
2023-05-04T22:34:33.713Z,3.40
2023-05-04T22:36:53.739Z,3.47
2023-05-04T22:39:13.903Z,3.60
2023-05-04T22:41:34.728Z,3.95
2023-05-04T22:43:54.859Z,3.38
2023-05-04T22:46:18.247Z,3.72
2023-05-04T22:48:38.445Z,3.38
2023-05-04T22:51:00.449Z,3.63
2023-05-04T22:53:20.480Z,4.78
2023-05-04T22:55:40.761Z,3.63
2023-05-04T22:58:01.198Z,4.13
2023-05-04T23:00:21.340Z,4.03
2023-05-04T23:02:42.422Z,4.82
2023-05-04T23:05:03.152Z,3.35
2023-05-04T23:07:23.320Z,3.42
2023-05-04T23:09:44.627Z,3.50
2023-05-04T23:12:04.949Z,4.25
2023-05-04T23:14:25.100Z,3.90
2023-05-04T23:16:45.062Z,3.70
2023-05-04T23:19:05.325Z,4.30
2023-05-04T23:21:26.647Z,4.07
2023-05-04T23:23:46.684Z,4.35
2023-05-04T23:26:07.001Z,4.03
2023-05-04T23:28:27.237Z,4.70
2023-05-04T23:30:47.292Z,4.22
2023-05-04T23:33:07.606Z,4.22
2023-05-04T23:35:27.775Z,4.95
2023-05-04T23:37:47.839Z,5.20
2023-05-04T23:40:08.925Z,4.50
2023-05-04T23:42:29.238Z,5.55
2023-05-04T23:44:49.531Z,4.80
2023-05-04T23:47:09.893Z,4.47
2023-05-04T23:49:29.826Z,4.20
2023-05-04T23:51:50.188Z,4.38
2023-05-04T23:54:10.268Z,4.68
2023-05-04T23:56:31.678Z,4.97
2023-05-04T23:58:52.034Z,5.30
